createdAt,value
2023-10-23T00:01:40.058Z,98.90
2023-10-23T00:04:26.458Z,99.30
2023-10-23T00:07:12.955Z,99.80
2023-10-23T00:09:59.116Z,99.40
2023-10-23T00:12:45.356Z,99.80
2023-10-23T00:15:31.340Z,99.90
2023-10-23T00:18:17.308Z,99.90
2023-10-23T00:21:03.712Z,99.90
2023-10-23T00:23:50.918Z,99.70
2023-10-23T00:26:37.222Z,99.90
2023-10-23T00:29:23.501Z,99.90
2023-10-23T00:32:09.668Z,99.90
2023-10-23T00:34:55.578Z,99.70
2023-10-23T00:37:41.591Z,99.60
2023-10-23T00:40:27.809Z,99.50
2023-10-23T00:43:25.422Z,99.50
2023-10-23T00:46:19.693Z,99.80
2023-10-23T00:49:05.815Z,99.90
2023-10-23T00:51:52.480Z,99.90
2023-10-23T00:54:41.009Z,99.90
2023-10-23T00:57:27.742Z,99.90
2023-10-23T01:00:14.859Z,99.90
2023-10-23T01:03:01.311Z,99.90
2023-10-23T01:05:47.657Z,99.90
2023-10-23T01:08:33.879Z,99.90
2023-10-23T01:11:20.156Z,99.90
2023-10-23T01:14:06.283Z,99.90
2023-10-23T01:16:52.306Z,99.90
2023-10-23T01:19:38.908Z,99.90
2023-10-23T01:22:25.202Z,99.50
2023-10-23T01:25:15.349Z,99.70
2023-10-23T01:28:01.861Z,99.90
2023-10-23T01:30:48.535Z,99.90
2023-10-23T01:33:36.810Z,99.90
2023-10-23T01:36:23.444Z,99.90
2023-10-23T01:39:09.479Z,99.90
2023-10-23T01:41:55.529Z,99.80
2023-10-23T01:44:41.486Z,99.90
2023-10-23T01:47:28.344Z,99.90
2023-10-23T01:50:14.823Z,99.90
2023-10-23T01:53:00.683Z,99.90
2023-10-23T01:55:46.814Z,99.90
2023-10-23T01:58:32.784Z,99.60
2023-10-23T02:01:23.705Z,99.90
2023-10-23T02:04:10.450Z,99.90
2023-10-23T02:06:57.269Z,99.70
2023-10-23T02:09:45.427Z,99.00
2023-10-23T02:12:33.724Z,98.70
2023-10-23T02:15:20.253Z,99.30
2023-10-23T02:18:08.901Z,99.90
2023-10-23T02:20:54.883Z,99.90
2023-10-23T02:23:53.280Z,99.90
2023-10-23T02:26:43.384Z,99.90
2023-10-23T02:29:29.642Z,99.90
2023-10-23T02:32:16.017Z,99.50
2023-10-23T02:35:02.467Z,99.80
2023-10-23T02:37:50.441Z,99.80
2023-10-23T02:40:36.602Z,99.80
2023-10-23T02:43:22.795Z,99.90
2023-10-23T02:46:09.183Z,99.90
2023-10-23T02:48:55.953Z,99.90
2023-10-23T02:51:42.358Z,99.90
2023-10-23T02:54:29.791Z,99.90
2023-10-23T02:57:16.156Z,99.90
2023-10-23T03:00:02.476Z,99.90
2023-10-23T03:02:49.997Z,99.90
2023-10-23T03:05:36.327Z,99.90
2023-10-23T03:08:22.736Z,99.80
2023-10-23T03:11:09.419Z,99.90
2023-10-23T03:13:55.985Z,99.90
2023-10-23T03:16:42.170Z,99.90
2023-10-23T03:19:28.411Z,99.90
2023-10-23T03:22:14.925Z,99.70
2023-10-23T03:25:01.019Z,99.90
2023-10-23T03:27:47.794Z,99.90
2023-10-23T03:30:34.092Z,99.90
2023-10-23T03:33:20.029Z,99.90
2023-10-23T03:36:06.303Z,99.90
2023-10-23T03:38:52.418Z,99.90
2023-10-23T03:41:38.487Z,99.80
2023-10-23T03:44:24.550Z,99.80
2023-10-23T03:47:10.509Z,99.70
2023-10-23T03:49:56.605Z,99.80
2023-10-23T03:52:42.647Z,99.90
2023-10-23T03:55:28.709Z,99.90
2023-10-23T03:58:14.655Z,99.90
2023-10-23T04:01:00.932Z,99.90
2023-10-23T04:03:46.977Z,99.90
2023-10-23T04:06:33.000Z,99.80
2023-10-23T04:09:19.204Z,99.90
2023-10-23T04:12:05.397Z,99.80
2023-10-23T04:14:51.960Z,99.30
2023-10-23T04:17:38.239Z,99.60
2023-10-23T04:20:24.200Z,99.90
2023-10-23T04:23:10.297Z,99.90
2023-10-23T04:25:57.092Z,99.90
2023-10-23T04:28:43.592Z,99.90
2023-10-23T04:31:29.994Z,99.20
2023-10-23T04:34:15.964Z,99.30
2023-10-23T04:37:02.005Z,99.40
2023-10-23T04:39:47.997Z,99.40
2023-10-23T04:42:34.036Z,99.40
2023-10-23T04:45:19.989Z,99.50
2023-10-23T04:48:07.367Z,99.30
2023-10-23T04:50:53.311Z,99.20
2023-10-23T04:53:39.368Z,99.40
2023-10-23T04:56:25.348Z,99.20
2023-10-23T04:59:11.539Z,99.10
2023-10-23T05:01:57.721Z,99.20
2023-10-23T05:04:43.717Z,99.00
2023-10-23T05:07:29.615Z,99.30
2023-10-23T05:10:16.178Z,99.30
2023-10-23T05:13:04.311Z,99.50
2023-10-23T05:15:50.776Z,99.80
2023-10-23T05:18:36.866Z,99.90
2023-10-23T05:21:22.985Z,99.90
2023-10-23T05:24:09.555Z,99.90
2023-10-23T05:26:56.003Z,99.90
2023-10-23T05:29:42.106Z,99.90
2023-10-23T05:32:28.230Z,99.90
2023-10-23T05:35:16.058Z,99.90
2023-10-23T05:38:02.454Z,99.90
2023-10-23T05:40:48.488Z,99.90
2023-10-23T05:43:34.575Z,99.90
2023-10-23T05:46:22.395Z,99.90
2023-10-23T05:49:09.079Z,99.90
2023-10-23T05:51:55.231Z,99.90
2023-10-23T05:54:41.391Z,99.90
2023-10-23T05:57:27.816Z,99.90
2023-10-23T06:00:14.310Z,99.90
2023-10-23T06:03:00.671Z,99.70
2023-10-23T06:05:46.925Z,99.80
2023-10-23T06:08:33.142Z,99.90
2023-10-23T06:11:19.200Z,99.90
2023-10-23T06:14:05.603Z,99.90
2023-10-23T06:16:52.227Z,99.60
2023-10-23T06:19:38.638Z,99.90
2023-10-23T06:22:25.072Z,99.90
2023-10-23T06:25:11.120Z,99.90
2023-10-23T06:27:57.595Z,99.90
2023-10-23T06:30:43.956Z,99.90
2023-10-23T06:33:29.769Z,99.90
2023-10-23T06:36:15.940Z,99.90
2023-10-23T06:39:02.355Z,99.90
2023-10-23T06:41:51.065Z,99.90
2023-10-23T06:44:37.251Z,99.70
2023-10-23T06:47:23.739Z,99.70
2023-10-23T06:50:11.881Z,99.80
2023-10-23T06:52:57.917Z,99.90
2023-10-23T06:55:51.396Z,99.90
2023-10-23T06:58:37.775Z,99.90
2023-10-23T07:01:38.019Z,99.90
2023-10-23T07:04:28.941Z,99.90
2023-10-23T07:07:28.669Z,99.90
2023-10-23T07:10:15.997Z,99.90
2023-10-23T07:13:19.103Z,99.90
2023-10-23T07:16:08.642Z,99.90
2023-10-23T07:18:54.728Z,99.90
2023-10-23T07:21:40.999Z,99.70
2023-10-23T07:24:27.017Z,99.70
2023-10-23T07:27:16.391Z,99.50
2023-10-23T07:30:05.298Z,99.20
2023-10-23T07:32:51.688Z,98.90
2023-10-23T07:35:50.896Z,98.60
2023-10-23T07:38:42.561Z,98.80
2023-10-23T07:41:28.949Z,98.30
2023-10-23T07:44:15.179Z,98.90
2023-10-23T07:47:01.593Z,99.30
2023-10-23T07:49:47.918Z,99.50
2023-10-23T07:52:34.179Z,99.50
2023-10-23T07:55:20.264Z,99.20
2023-10-23T07:58:06.555Z,99.10
2023-10-23T08:01:01.465Z,98.50
2023-10-23T08:03:48.343Z,98.40
2023-10-23T08:06:34.802Z,97.90
2023-10-23T08:09:22.211Z,98.00
2023-10-23T08:12:08.779Z,97.70
2023-10-23T08:14:55.049Z,97.50
2023-10-23T08:17:42.801Z,96.90
2023-10-23T08:20:30.376Z,96.90
2023-10-23T08:23:16.903Z,96.80
2023-10-23T08:26:02.916Z,96.50
2023-10-23T08:29:02.056Z,96.50
2023-10-23T08:31:49.269Z,96.40
2023-10-23T08:34:35.588Z,95.90
2023-10-23T08:37:21.751Z,95.90
2023-10-23T08:40:09.083Z,95.80
2023-10-23T08:42:55.001Z,95.30
2023-10-23T08:45:43.770Z,95.10
2023-10-23T08:48:30.306Z,95.20
2023-10-23T08:51:16.547Z,95.00
2023-10-23T08:54:11.481Z,95.00
2023-10-23T08:57:00.466Z,94.40
2023-10-23T08:59:46.837Z,94.10
2023-10-23T09:02:34.489Z,94.20
2023-10-23T09:05:38.787Z,93.90
2023-10-23T09:08:28.623Z,93.70
2023-10-23T09:11:14.919Z,93.10
2023-10-23T09:14:01.195Z,92.80
2023-10-23T09:16:47.443Z,93.10
2023-10-23T09:19:42.205Z,92.90
2023-10-23T09:22:30.242Z,92.30
2023-10-23T09:25:22.498Z,92.40
2023-10-23T09:28:12.345Z,92.30
2023-10-23T09:30:58.576Z,92.20
2023-10-23T09:33:46.480Z,92.10
2023-10-23T09:36:34.559Z,92.00
2023-10-23T09:39:23.539Z,92.40
2023-10-23T09:42:10.165Z,92.10
2023-10-23T09:44:56.344Z,92.90
2023-10-23T09:47:42.621Z,92.40
2023-10-23T09:50:29.290Z,92.00
2023-10-23T09:53:17.048Z,91.60
2023-10-23T09:56:06.400Z,91.60
2023-10-23T09:59:00.098Z,91.30
2023-10-23T10:01:50.782Z,91.20
2023-10-23T10:05:09.807Z,91.50
2023-10-23T10:08:09.376Z,91.60
2023-10-23T10:10:56.727Z,91.40
2023-10-23T10:13:44.031Z,91.00
2023-10-23T10:16:31.019Z,91.10
2023-10-23T10:19:18.199Z,91.10
2023-10-23T10:22:34.575Z,90.80
2023-10-23T10:25:21.600Z,90.70
2023-10-23T10:28:09.377Z,91.00
2023-10-23T10:30:56.092Z,91.10
2023-10-23T10:34:26.470Z,90.20
2023-10-23T10:36:49.622Z,90.80
2023-10-23T10:39:59.270Z,90.20
2023-10-23T10:42:45.506Z,89.70
2023-10-23T10:45:31.787Z,88.60
2023-10-23T10:48:18.462Z,89.00
2023-10-23T10:51:05.306Z,89.30
2023-10-23T10:54:03.480Z,88.40
2023-10-23T10:56:50.564Z,88.60
2023-10-23T10:59:36.874Z,88.90
2023-10-23T11:02:24.419Z,88.30
2023-10-23T11:05:12.272Z,88.80
2023-10-23T11:07:58.518Z,89.20
2023-10-23T11:10:44.972Z,89.50
2023-10-23T11:13:31.993Z,90.00
2023-10-23T11:16:18.063Z,89.20
2023-10-23T11:19:05.314Z,90.00
2023-10-23T11:22:08.077Z,90.00
2023-10-23T11:24:54.900Z,90.10
2023-10-23T11:27:41.592Z,90.20
2023-10-23T11:30:28.921Z,89.90
2023-10-23T11:33:19.007Z,89.70
2023-10-23T11:36:06.979Z,90.00
2023-10-23T11:38:53.001Z,89.60
2023-10-23T11:41:39.115Z,89.70
2023-10-23T11:44:28.644Z,88.50
2023-10-23T11:47:14.887Z,88.20
2023-10-23T11:50:01.500Z,89.70
2023-10-23T11:52:49.688Z,89.70
2023-10-23T11:55:37.647Z,89.40
2023-10-23T11:58:30.752Z,89.60
2023-10-23T12:01:16.855Z,90.10
2023-10-23T12:04:05.566Z,89.50
2023-10-23T12:06:52.120Z,89.80
2023-10-23T12:09:38.477Z,90.00
2023-10-23T12:12:24.613Z,89.20
2023-10-23T12:15:12.140Z,89.90
2023-10-23T12:18:07.654Z,90.20
2023-10-23T12:20:54.346Z,90.50
2023-10-23T12:23:42.296Z,90.10
2023-10-23T12:26:28.676Z,90.40
2023-10-23T12:29:16.320Z,90.00
2023-10-23T12:32:02.813Z,90.20
2023-10-23T12:34:52.125Z,90.10
2023-10-23T12:37:40.249Z,89.10
2023-10-23T12:40:30.731Z,89.20
2023-10-23T12:43:19.072Z,89.30
2023-10-23T12:46:05.144Z,89.50
2023-10-23T12:48:51.264Z,89.50
2023-10-23T12:51:37.534Z,88.30
2023-10-23T12:54:23.739Z,88.10
2023-10-23T12:57:09.964Z,86.80
2023-10-23T12:59:56.120Z,88.10
2023-10-23T13:02:43.564Z,87.40
2023-10-23T13:05:30.601Z,87.10
2023-10-23T13:08:16.795Z,86.50
2023-10-23T13:11:02.965Z,85.20
2023-10-23T13:13:49.283Z,86.00
2023-10-23T13:16:35.976Z,85.70
2023-10-23T13:19:22.677Z,86.50
2023-10-23T13:22:11.569Z,86.10
2023-10-23T13:24:58.112Z,85.70
2023-10-23T13:27:44.123Z,85.70
2023-10-23T13:30:30.290Z,86.20
2023-10-23T13:33:16.239Z,85.60
2023-10-23T13:36:02.387Z,85.70
2023-10-23T13:38:49.737Z,86.60
2023-10-23T13:41:35.987Z,86.60
2023-10-23T13:44:22.235Z,86.90
2023-10-23T13:47:08.655Z,85.80
2023-10-23T13:49:57.036Z,86.60
2023-10-23T13:52:43.291Z,86.60
2023-10-23T13:55:29.472Z,86.30
2023-10-23T13:58:15.642Z,87.20
2023-10-23T14:01:01.709Z,88.00
2023-10-23T14:03:48.265Z,89.00
2023-10-23T14:06:34.633Z,89.80
2023-10-23T14:09:40.326Z,90.10
2023-10-23T14:12:27.346Z,90.70
2023-10-23T14:15:14.514Z,91.00
2023-10-23T14:18:00.632Z,90.80
2023-10-23T14:20:47.144Z,90.80
2023-10-23T14:23:33.214Z,91.20
2023-10-23T14:26:19.723Z,91.40
2023-10-23T14:29:08.700Z,91.50
2023-10-23T14:31:55.145Z,91.50
2023-10-23T14:34:41.468Z,91.40
2023-10-23T14:37:27.929Z,91.50
2023-10-23T14:40:15.213Z,91.10
2023-10-23T14:43:01.766Z,91.00
2023-10-23T14:45:52.640Z,90.90
2023-10-23T14:48:40.218Z,90.70
2023-10-23T14:51:26.525Z,90.80
2023-10-23T14:54:12.601Z,90.80
2023-10-23T14:56:58.962Z,90.80
2023-10-23T14:59:45.256Z,90.70
2023-10-23T15:02:31.509Z,90.80
2023-10-23T15:05:18.059Z,90.90
2023-10-23T15:08:04.545Z,91.00
2023-10-23T15:10:50.649Z,91.20
2023-10-23T15:13:36.831Z,91.40
2023-10-23T15:16:23.161Z,91.20
2023-10-23T15:19:09.194Z,91.20
2023-10-23T15:21:55.813Z,91.50
2023-10-23T15:24:42.525Z,91.50
2023-10-23T15:27:29.206Z,91.70
2023-10-23T15:30:16.618Z,91.70
2023-10-23T15:33:05.276Z,91.70
2023-10-23T15:35:58.186Z,92.00
2023-10-23T15:38:44.833Z,92.30
2023-10-23T15:41:30.893Z,92.40
2023-10-23T15:44:17.999Z,92.60
2023-10-23T15:47:04.367Z,92.90
2023-10-23T15:49:51.031Z,93.00
2023-10-23T15:52:36.989Z,93.10
2023-10-23T15:55:24.347Z,93.10
2023-10-23T15:58:11.533Z,93.30
2023-10-23T16:00:58.397Z,93.30
2023-10-23T16:03:45.270Z,93.30
2023-10-23T16:06:33.127Z,93.40
2023-10-23T16:09:26.384Z,93.50
2023-10-23T16:12:15.249Z,93.70
2023-10-23T16:15:01.957Z,93.80
2023-10-23T16:17:49.341Z,93.90
2023-10-23T16:20:38.085Z,94.00
2023-10-23T16:23:25.402Z,94.10
2023-10-23T16:26:12.207Z,94.50
2023-10-23T16:28:58.710Z,94.30
2023-10-23T16:31:45.299Z,94.40
2023-10-23T16:34:32.883Z,94.30
2023-10-23T16:37:19.164Z,94.40
2023-10-23T16:40:05.982Z,94.50
2023-10-23T16:42:52.460Z,94.50
2023-10-23T16:45:38.772Z,94.50
2023-10-23T16:48:25.189Z,94.60
2023-10-23T16:51:11.523Z,94.70
2023-10-23T16:53:57.861Z,94.80
2023-10-23T16:56:44.407Z,95.10
2023-10-23T16:59:30.666Z,95.10
2023-10-23T17:02:17.249Z,95.20
2023-10-23T17:05:03.742Z,95.10
2023-10-23T17:07:50.085Z,95.20
2023-10-23T17:10:36.752Z,95.10
2023-10-23T17:13:23.455Z,95.30
2023-10-23T17:16:13.439Z,95.40
2023-10-23T17:19:00.206Z,95.40
2023-10-23T17:21:47.239Z,95.40
2023-10-23T17:24:34.902Z,95.60
2023-10-23T17:27:21.025Z,95.50
2023-10-23T17:30:08.052Z,95.50
2023-10-23T17:32:54.560Z,95.50
2023-10-23T17:35:40.958Z,95.60
2023-10-23T17:38:27.607Z,95.60
2023-10-23T17:41:16.193Z,95.80
2023-10-23T17:44:02.672Z,95.80
2023-10-23T17:46:48.781Z,95.80
2023-10-23T17:49:35.142Z,95.80
2023-10-23T17:52:21.606Z,95.60
2023-10-23T17:55:08.576Z,95.70
2023-10-23T17:57:55.310Z,95.80
2023-10-23T18:00:41.579Z,95.80
2023-10-23T18:03:28.205Z,95.90
2023-10-23T18:06:14.552Z,96.00
2023-10-23T18:09:03.020Z,96.00
2023-10-23T18:11:49.386Z,96.00
2023-10-23T18:14:35.657Z,96.10
2023-10-23T18:17:22.171Z,96.10
2023-10-23T18:20:09.004Z,96.10
2023-10-23T18:22:58.104Z,96.20
2023-10-23T18:25:44.165Z,96.20
2023-10-23T18:28:30.689Z,96.20
2023-10-23T18:31:17.471Z,96.30
2023-10-23T18:34:04.970Z,96.40
2023-10-23T18:36:51.313Z,96.40
2023-10-23T18:39:38.007Z,96.50
2023-10-23T18:42:25.623Z,96.40
2023-10-23T18:45:12.267Z,96.50
2023-10-23T18:47:58.769Z,96.50
2023-10-23T18:50:45.160Z,96.80
2023-10-23T18:53:31.747Z,96.80
2023-10-23T18:56:17.852Z,96.90
2023-10-23T18:59:04.484Z,96.90
2023-10-23T19:01:50.555Z,96.90
2023-10-23T19:04:36.659Z,96.90
2023-10-23T19:07:23.211Z,96.90
2023-10-23T19:10:10.886Z,97.20
2023-10-23T19:12:57.064Z,97.30
2023-10-23T19:15:43.020Z,97.20
2023-10-23T19:18:31.252Z,97.40
2023-10-23T19:21:18.057Z,97.40
2023-10-23T19:24:05.121Z,97.40
2023-10-23T19:26:50.993Z,97.50
2023-10-23T19:29:37.173Z,97.60
2023-10-23T19:32:23.420Z,97.70
2023-10-23T19:35:10.798Z,97.60
2023-10-23T19:37:57.197Z,97.60
2023-10-23T19:40:50.496Z,97.50
2023-10-23T19:43:43.236Z,97.60
2023-10-23T19:46:29.692Z,97.80
2023-10-23T19:49:16.190Z,97.80
2023-10-23T19:52:03.169Z,97.90
2023-10-23T19:54:50.954Z,97.90
2023-10-23T19:57:37.705Z,97.80
2023-10-23T20:00:24.076Z,97.90
2023-10-23T20:03:11.154Z,97.80
2023-10-23T20:05:57.099Z,98.00
2023-10-23T20:08:43.223Z,98.00
2023-10-23T20:11:29.658Z,97.90
2023-10-23T20:14:17.379Z,98.00
2023-10-23T20:17:04.051Z,98.00
2023-10-23T20:19:50.614Z,98.20
2023-10-23T20:22:36.775Z,98.10
2023-10-23T20:25:23.037Z,98.20
2023-10-23T20:28:10.337Z,98.20
2023-10-23T20:30:56.604Z,98.30
2023-10-23T20:33:43.630Z,98.50
2023-10-23T20:36:30.021Z,98.50
2023-10-23T20:39:16.133Z,98.80
2023-10-23T20:42:02.278Z,98.70
2023-10-23T20:44:48.286Z,98.60
2023-10-23T20:47:35.649Z,98.60
2023-10-23T20:50:24.272Z,98.60
2023-10-23T20:53:10.593Z,98.60
2023-10-23T20:55:58.819Z,98.40
2023-10-23T20:58:44.904Z,98.60
2023-10-23T21:01:31.127Z,99.10
2023-10-23T21:04:17.022Z,99.00
2023-10-23T21:07:03.713Z,98.80
2023-10-23T21:09:51.634Z,98.70
2023-10-23T21:12:38.665Z,98.80
2023-10-23T21:15:24.769Z,98.80
2023-10-23T21:18:10.886Z,99.20
2023-10-23T21:20:57.170Z,99.10
2023-10-23T21:23:43.455Z,99.00
2023-10-23T21:26:31.195Z,98.80
2023-10-23T21:29:21.975Z,98.90
2023-10-23T21:32:08.675Z,99.40
2023-10-23T21:34:54.970Z,99.30
2023-10-23T21:37:41.224Z,99.30
2023-10-23T21:40:27.362Z,99.20
2023-10-23T21:43:14.029Z,99.00
2023-10-23T21:48:56.119Z,99.50
2023-10-23T21:51:42.544Z,99.60
2023-10-23T21:54:28.774Z,99.60
2023-10-23T21:57:22.522Z,99.60
2023-10-23T22:00:18.964Z,99.70
2023-10-23T22:03:05.533Z,99.90
2023-10-23T22:05:52.092Z,99.90
2023-10-23T22:08:44.594Z,99.80
2023-10-23T22:11:31.156Z,99.90
2023-10-23T22:14:17.805Z,99.90
2023-10-23T22:17:04.432Z,99.90
2023-10-23T22:19:50.594Z,99.90
2023-10-23T22:22:36.674Z,99.90
2023-10-23T22:25:22.736Z,99.90
2023-10-23T22:28:08.955Z,99.90
2023-10-23T22:30:55.282Z,99.90
2023-10-23T22:33:41.814Z,99.90
2023-10-23T22:36:27.796Z,99.90
2023-10-23T22:39:13.920Z,99.90
2023-10-23T22:42:00.955Z,99.90
2023-10-23T22:44:47.013Z,99.90
2023-10-23T22:47:33.161Z,99.90
2023-10-23T22:50:20.058Z,99.90
2023-10-23T22:53:06.276Z,99.90
2023-10-23T22:55:55.118Z,99.90
2023-10-23T22:58:42.324Z,99.90
2023-10-23T23:01:28.994Z,99.90
2023-10-23T23:04:15.597Z,99.90
2023-10-23T23:07:03.950Z,99.80
2023-10-23T23:09:50.336Z,99.90
2023-10-23T23:12:37.580Z,99.90
2023-10-23T23:15:24.040Z,99.90
2023-10-23T23:18:20.061Z,99.90
2023-10-23T23:21:09.448Z,99.90
2023-10-23T23:23:55.546Z,99.90
2023-10-23T23:26:41.565Z,99.90
2023-10-23T23:29:27.877Z,99.90
2023-10-23T23:32:14.014Z,99.90
2023-10-23T23:35:00.298Z,99.90
2023-10-23T23:37:46.476Z,99.90
2023-10-23T23:40:32.485Z,99.90
2023-10-23T23:43:18.554Z,99.90
2023-10-23T23:46:04.789Z,99.90
2023-10-23T23:48:51.307Z,99.90
2023-10-23T23:51:37.633Z,99.90
2023-10-23T23:54:23.938Z,99.90
2023-10-23T23:57:12.120Z,99.90
2023-10-23T23:59:58.612Z,99.90
